createdAt,value
2018-08-10T00:01:01.597Z,55.62
2018-08-10T00:03:30.442Z,55.56
2018-08-10T00:05:59.685Z,55.12
2018-08-10T00:08:28.610Z,55.73
2018-08-10T00:10:57.428Z,55.76
2018-08-10T00:13:26.280Z,55.60
2018-08-10T00:15:55.099Z,56.29
2018-08-10T00:18:23.921Z,55.40
2018-08-10T00:20:52.783Z,56.37
2018-08-10T00:23:22.515Z,56.15
2018-08-10T00:25:51.379Z,56.19
2018-08-10T00:28:20.703Z,56.29
2018-08-10T00:30:49.568Z,56.53
2018-08-10T00:33:19.373Z,56.49
2018-08-10T00:35:48.825Z,56.55
2018-08-10T00:38:17.695Z,57.91
2018-08-10T00:40:46.545Z,57.86
2018-08-10T00:43:17.535Z,59.13
2018-08-10T00:45:46.361Z,60.38
2018-08-10T00:48:15.265Z,60.12
2018-08-10T00:50:44.636Z,59.61
2018-08-10T00:53:13.465Z,60.09
2018-08-10T00:55:43.328Z,60.04
2018-08-10T00:58:12.256Z,58.83
2018-08-10T01:00:41.633Z,58.80
2018-08-10T01:03:10.464Z,59.87
2018-08-10T01:05:39.357Z,59.15
2018-08-10T01:08:08.270Z,59.46
2018-08-10T01:10:37.553Z,59.84
2018-08-10T01:13:07.406Z,59.33
2018-08-10T01:15:36.249Z,59.87
2018-08-10T01:18:05.108Z,59.83
2018-08-10T01:20:33.964Z,59.57
2018-08-10T01:23:08.138Z,58.20
2018-08-10T01:25:37.035Z,58.42
2018-08-10T01:28:06.492Z,58.26
2018-08-10T01:30:36.206Z,57.59
2018-08-10T01:33:05.099Z,57.69
2018-08-10T01:35:33.964Z,57.69
2018-08-10T01:38:03.468Z,56.83
2018-08-10T01:40:32.328Z,56.86
2018-08-10T01:43:01.517Z,57.11
2018-08-10T01:45:30.357Z,57.35
2018-08-10T01:47:59.208Z,56.89
2018-08-10T01:50:28.428Z,56.93
2018-08-10T01:52:57.259Z,56.25
2018-08-10T01:55:26.117Z,56.13
2018-08-10T01:57:54.985Z,56.56
2018-08-10T02:00:24.180Z,56.56
2018-08-10T02:02:53.033Z,55.79
2018-08-10T02:05:21.921Z,55.72
2018-08-10T02:07:51.531Z,55.61
2018-08-10T02:10:21.838Z,56.22
2018-08-10T02:12:56.954Z,56.50
2018-08-10T02:15:27.377Z,55.77
2018-08-10T02:17:56.645Z,55.79
2018-08-10T02:20:26.282Z,56.34
2018-08-10T02:22:55.169Z,55.81
2018-08-10T02:25:24.157Z,56.45
2018-08-10T02:27:53.470Z,55.55
2018-08-10T02:30:22.993Z,55.53
2018-08-10T02:32:52.385Z,55.45
2018-08-10T02:35:21.524Z,56.28
2018-08-10T02:37:50.358Z,55.82
2018-08-10T02:40:22.952Z,56.15
2018-08-10T02:42:52.656Z,56.45
2018-08-10T02:45:21.862Z,55.89
2018-08-10T02:47:51.189Z,55.89
2018-08-10T02:50:20.038Z,56.65
2018-08-10T02:52:48.981Z,55.99
2018-08-10T02:55:18.186Z,56.85
2018-08-10T02:57:47.043Z,57.40
2018-08-10T03:00:17.386Z,57.85
2018-08-10T03:02:46.692Z,57.12
2018-08-10T03:05:15.513Z,57.57
2018-08-10T03:07:44.573Z,58.07
2018-08-10T03:10:14.533Z,57.36
2018-08-10T03:12:43.336Z,58.04
2018-08-10T03:15:14.281Z,57.26
2018-08-10T03:17:43.477Z,58.42
2018-08-10T03:20:12.402Z,57.86
2018-08-10T03:22:41.552Z,57.62
2018-08-10T03:25:11.689Z,57.91
2018-08-10T03:27:40.900Z,57.76
2018-08-10T03:30:10.997Z,58.20
2018-08-10T03:32:40.159Z,58.97
2018-08-10T03:35:08.987Z,58.59
2018-08-10T03:37:38.377Z,57.41
2018-08-10T03:40:09.427Z,57.74
2018-08-10T03:42:38.626Z,57.98
2018-08-10T03:45:09.114Z,58.21
2018-08-10T03:47:39.132Z,58.32
2018-08-10T03:50:09.678Z,58.34
2018-08-10T03:52:38.924Z,58.48
2018-08-10T03:55:08.506Z,59.12
2018-08-10T03:57:37.440Z,60.34
2018-08-10T04:00:08.860Z,60.14
2018-08-10T04:02:37.917Z,61.85
2018-08-10T04:05:07.676Z,64.28
2018-08-10T04:07:36.558Z,63.25
2018-08-10T04:10:06.910Z,63.54
2018-08-10T04:12:37.297Z,64.07
2018-08-10T04:15:08.575Z,64.18
2018-08-10T04:17:37.441Z,64.13
2018-08-10T04:20:07.511Z,64.47
2018-08-10T04:22:36.367Z,64.16
2018-08-10T04:25:06.025Z,62.92
2018-08-10T04:27:34.864Z,64.26
2018-08-10T04:30:03.866Z,64.06
2018-08-10T04:32:32.684Z,66.16
2018-08-10T04:35:03.173Z,64.88
2018-08-10T04:37:33.641Z,64.80
2018-08-10T04:40:02.462Z,64.36
2018-08-10T04:42:32.164Z,64.93
2018-08-10T04:45:03.700Z,64.50
2018-08-10T04:47:33.068Z,63.79
2018-08-10T04:50:04.014Z,64.96
2018-08-10T04:52:33.820Z,64.21
2018-08-10T04:55:02.748Z,64.73
2018-08-10T04:57:32.559Z,64.76
2018-08-10T05:00:01.735Z,64.44
2018-08-10T05:02:30.596Z,64.61
2018-08-10T05:05:01.752Z,64.20
2018-08-10T05:07:33.556Z,64.09
2018-08-10T05:10:03.657Z,64.47
2018-08-10T05:12:32.519Z,63.65
2018-08-10T05:15:16.240Z,63.50
2018-08-10T05:17:45.106Z,62.33
2018-08-10T05:20:13.969Z,62.59
2018-08-10T05:22:42.821Z,62.84
2018-08-10T05:25:21.219Z,62.19
2018-08-10T05:27:50.333Z,60.57
2018-08-10T05:30:19.576Z,61.95
2018-08-10T05:32:49.397Z,62.22
2018-08-10T05:35:18.224Z,61.56
2018-08-10T05:37:49.669Z,60.67
2018-08-10T05:40:20.944Z,61.27
2018-08-10T05:42:49.864Z,60.73
2018-08-10T05:45:19.337Z,61.14
2018-08-10T05:47:48.961Z,60.52
2018-08-10T05:50:17.798Z,59.69
2018-08-10T05:52:49.951Z,60.00
2018-08-10T05:55:18.853Z,58.91
2018-08-10T05:57:47.657Z,58.73
2018-08-10T06:00:16.503Z,57.74
2018-08-10T06:02:45.374Z,58.27
2018-08-10T06:05:17.347Z,56.95
2018-08-10T06:07:46.239Z,57.16
2018-08-10T06:10:15.075Z,57.35
2018-08-10T06:12:43.904Z,57.80
2018-08-10T06:15:14.358Z,57.13
2018-08-10T06:17:49.220Z,56.56
2018-08-10T06:20:29.617Z,55.65
2018-08-10T06:22:58.529Z,56.41
2018-08-10T06:25:27.306Z,57.02
2018-08-10T06:27:56.546Z,55.79
2018-08-10T06:30:25.576Z,56.67
2018-08-10T06:32:57.448Z,56.89
2018-08-10T06:35:26.370Z,54.57
2018-08-10T06:37:55.767Z,55.43
2018-08-10T06:40:24.756Z,56.14
2018-08-10T06:42:53.634Z,56.05
2018-08-10T06:45:22.553Z,55.17
2018-08-10T06:47:51.677Z,55.57
2018-08-10T06:50:21.414Z,56.37
2018-08-10T06:59:30.409Z,55.21
2018-08-10T07:01:59.212Z,55.02
2018-08-10T07:04:28.406Z,54.40
2018-08-10T07:06:57.221Z,54.51
2018-08-10T07:09:26.918Z,55.69
2018-08-10T07:11:56.731Z,54.20
2018-08-10T07:14:28.237Z,54.03
2018-08-10T07:16:57.732Z,54.45
2018-08-10T07:19:28.075Z,53.57
2018-08-10T07:21:56.952Z,53.23
2018-08-10T07:24:25.813Z,53.86
2018-08-10T07:26:56.225Z,53.35
2018-08-10T07:29:26.958Z,54.17
2018-08-10T07:31:58.012Z,53.47
2018-08-10T07:34:27.199Z,52.83
2018-08-10T07:36:56.151Z,53.74
2018-08-10T07:39:24.979Z,53.21
2018-08-10T07:41:53.804Z,52.83
2018-08-10T07:44:24.466Z,53.28
2018-08-10T07:46:53.275Z,54.20
2018-08-10T07:49:22.136Z,52.98
2018-08-10T07:51:51.491Z,52.80
2018-08-10T07:54:21.296Z,53.23
2018-08-10T07:56:50.861Z,53.03
2018-08-10T07:59:22.483Z,52.38
2018-08-10T08:01:52.822Z,52.18
2018-08-10T08:04:22.187Z,52.46
2018-08-10T08:06:56.148Z,51.47
2018-08-10T08:09:25.432Z,50.52
2018-08-10T08:11:55.348Z,49.81
2018-08-10T08:14:24.356Z,49.91
2018-08-10T08:16:53.333Z,50.15
2018-08-10T08:19:22.361Z,51.25
2018-08-10T08:22:10.610Z,51.20
2018-08-10T08:24:40.747Z,49.76
2018-08-10T08:27:10.035Z,50.00
2018-08-10T08:29:39.867Z,47.19
2018-08-10T08:32:11.219Z,48.54
2018-08-10T08:34:42.605Z,48.18
2018-08-10T08:37:14.422Z,47.72
2018-08-10T08:40:32.159Z,47.94
2018-08-10T08:43:02.281Z,47.97
2018-08-10T08:46:10.469Z,46.36
2018-08-10T08:48:42.441Z,46.13
2018-08-10T08:51:17.417Z,47.05
2018-08-10T08:53:46.875Z,47.17
2018-08-10T08:56:19.973Z,45.70
2018-08-10T08:58:50.776Z,47.95
2018-08-10T09:01:19.693Z,47.08
2018-08-10T09:04:30.991Z,46.81
2018-08-10T09:07:00.749Z,46.73
2018-08-10T09:09:39.700Z,46.20
2018-08-10T09:12:10.065Z,44.97
2018-08-10T09:14:44.503Z,44.92
2018-08-10T09:17:13.816Z,44.74
2018-08-10T09:19:43.486Z,45.68
2018-08-10T09:22:14.401Z,46.30
2018-08-10T09:24:44.016Z,46.66
2018-08-10T09:27:14.686Z,47.51
2018-08-10T09:29:46.278Z,47.44
2018-08-10T09:32:16.973Z,46.55
2018-08-10T09:34:47.305Z,46.47
2018-08-10T09:37:18.229Z,47.23
2018-08-10T09:39:47.117Z,45.69
2018-08-10T09:42:18.275Z,44.74
2018-08-10T09:44:48.631Z,45.66
2018-08-10T09:47:18.470Z,43.88
2018-08-10T09:49:48.791Z,44.53
2018-08-10T09:52:34.726Z,44.03
2018-08-10T09:55:34.954Z,43.93
2018-08-10T09:58:11.884Z,44.53
2018-08-10T10:00:45.923Z,43.66
2018-08-10T10:03:27.363Z,43.02
2018-08-10T10:05:57.949Z,43.00
2018-08-10T10:08:27.288Z,42.50
2018-08-10T10:10:56.437Z,43.30
2018-08-10T10:13:25.300Z,42.37
2018-08-10T10:15:54.841Z,41.22
2018-08-10T10:18:24.224Z,42.74
2018-08-10T10:20:59.190Z,41.59
2018-08-10T10:23:29.831Z,41.14
2018-08-10T10:25:59.128Z,41.17
2018-08-10T10:28:27.985Z,41.19
2018-08-10T10:30:57.684Z,42.33
2018-08-10T10:33:27.337Z,42.37
2018-08-10T10:35:59.190Z,42.36
2018-08-10T10:38:28.370Z,40.94
2018-08-10T10:40:57.899Z,40.55
2018-08-10T10:43:29.327Z,41.08
2018-08-10T10:45:59.668Z,41.20
2018-08-10T10:48:28.577Z,40.75
2018-08-10T10:50:58.661Z,39.55
2018-08-10T10:53:28.515Z,40.61
2018-08-10T10:55:57.469Z,39.98
2018-08-10T10:58:26.420Z,40.92
2018-08-10T11:00:55.501Z,41.27
2018-08-10T11:03:24.865Z,40.69
2018-08-10T11:05:54.630Z,40.56
2018-08-10T11:08:23.477Z,41.20
2018-08-10T11:10:52.889Z,41.33
2018-08-10T11:13:23.625Z,41.54
2018-08-10T11:15:54.542Z,39.79
2018-08-10T11:18:26.581Z,38.60
2018-08-10T11:20:55.453Z,40.63
2018-08-10T11:23:24.628Z,40.60
2018-08-10T11:25:55.846Z,39.99
2018-08-10T11:28:30.011Z,39.65
2018-08-10T11:31:07.153Z,40.40
2018-08-10T11:33:40.084Z,39.54
2018-08-10T11:36:12.126Z,41.18
2018-08-10T11:38:41.499Z,39.41
2018-08-10T11:41:13.629Z,38.79
2018-08-10T11:43:42.568Z,39.74
2018-08-10T11:46:11.468Z,40.13
2018-08-10T11:48:45.776Z,38.85
2018-08-10T11:51:17.781Z,38.27
2018-08-10T11:53:48.594Z,38.39
2018-08-10T11:56:23.539Z,37.83
2018-08-10T11:58:52.476Z,36.73
2018-08-10T12:01:21.381Z,36.67
2018-08-10T12:04:01.523Z,37.56
2018-08-10T12:06:30.404Z,36.87
2018-08-10T12:09:00.152Z,37.02
2018-08-10T12:11:30.183Z,37.30
2018-08-10T12:13:59.019Z,37.17
2018-08-10T12:16:29.504Z,37.09
2018-08-10T12:18:59.921Z,37.72
2018-08-10T12:21:28.777Z,38.55
2018-08-10T12:23:58.709Z,37.07
2018-08-10T12:26:27.995Z,37.53
2018-08-10T12:28:58.364Z,38.41
2018-08-10T12:31:27.973Z,38.57
2018-08-10T12:33:58.089Z,38.13
2018-08-10T12:36:28.427Z,36.22
2018-08-10T12:38:57.263Z,36.70
2018-08-10T12:41:27.740Z,37.81
2018-08-10T12:43:57.990Z,37.80
2018-08-10T12:46:28.581Z,37.98
2018-08-10T12:48:58.802Z,38.20
2018-08-10T12:51:28.313Z,37.53
2018-08-10T12:53:57.677Z,36.42
2018-08-10T12:56:27.228Z,37.11
2018-08-10T12:59:00.312Z,35.07
2018-08-10T13:01:31.499Z,35.72
2018-08-10T13:04:03.138Z,36.21
2018-08-10T13:06:32.073Z,36.28
2018-08-10T13:09:03.406Z,37.12
2018-08-10T13:11:33.233Z,37.30
2018-08-10T13:14:02.072Z,37.95
2018-08-10T13:16:31.051Z,38.95
2018-08-10T13:19:01.514Z,37.63
2018-08-10T13:22:34.403Z,37.48
2018-08-10T13:25:03.236Z,36.78
2018-08-10T13:27:32.791Z,36.34
2018-08-10T13:30:02.701Z,36.44
2018-08-10T13:32:33.524Z,36.72
2018-08-10T13:35:03.310Z,36.44
2018-08-10T13:37:32.285Z,36.43
2018-08-10T13:40:01.728Z,36.61
2018-08-10T13:42:34.609Z,37.00
2018-08-10T13:45:18.036Z,35.64
2018-08-10T13:47:47.729Z,36.33
2018-08-10T13:50:18.716Z,36.60
2018-08-10T13:52:51.327Z,35.69
2018-08-10T13:55:21.117Z,35.80
2018-08-10T13:57:50.638Z,34.92
2018-08-10T14:00:21.746Z,34.61
2018-08-10T14:02:53.276Z,33.83
2018-08-10T14:05:23.153Z,35.09
2018-08-10T14:07:55.328Z,34.84
2018-08-10T14:10:25.666Z,34.58
2018-08-10T14:12:54.499Z,31.55
2018-08-10T14:15:27.772Z,32.65
2018-08-10T14:17:57.386Z,31.55
2018-08-10T14:20:27.910Z,31.88
2018-08-10T14:22:58.201Z,32.66
2018-08-10T14:25:28.761Z,33.30
2018-08-10T14:28:03.077Z,32.70
2018-08-10T14:30:36.609Z,33.29
2018-08-10T14:33:06.472Z,30.92
2018-08-10T14:35:38.999Z,31.57
2018-08-10T14:38:09.394Z,31.47
2018-08-10T14:40:38.350Z,32.02
2018-08-10T14:43:07.321Z,31.81
2018-08-10T14:45:37.208Z,31.44
2018-08-10T14:48:07.837Z,31.20
2018-08-10T14:50:37.739Z,31.93
2018-08-10T14:53:08.009Z,32.07
2018-08-10T14:55:39.604Z,33.56
2018-08-10T14:58:10.267Z,32.62
2018-08-10T15:04:07.387Z,31.47
2018-08-10T15:06:37.764Z,30.25
2018-08-10T15:09:12.101Z,29.68
2018-08-10T15:11:41.511Z,29.82
2018-08-10T15:14:12.033Z,29.98
2018-08-10T15:16:42.087Z,29.99
2018-08-10T15:19:10.991Z,30.24
2018-08-10T15:21:43.562Z,29.01
2018-08-10T15:24:12.900Z,29.55
2018-08-10T15:26:42.582Z,29.82
2018-08-10T15:29:11.517Z,29.50
2018-08-10T15:31:41.686Z,28.88
2018-08-10T15:34:11.059Z,29.92
2018-08-10T15:36:40.039Z,29.30
2018-08-10T15:39:10.849Z,28.59
2018-08-10T15:41:44.779Z,29.21
2018-08-10T15:44:16.441Z,29.78
2018-08-10T15:46:46.321Z,28.10
2018-08-10T15:49:16.577Z,28.97
2018-08-10T15:51:48.036Z,29.33
2018-08-10T15:54:17.701Z,29.50
2018-08-10T15:56:49.528Z,30.60
2018-08-10T15:59:20.019Z,29.16
2018-08-10T16:01:50.017Z,28.70
2018-08-10T16:04:20.491Z,29.14
2018-08-10T16:06:51.527Z,28.96
2018-08-10T16:09:21.386Z,29.63
2018-08-10T16:11:51.202Z,29.25
2018-08-10T16:14:20.481Z,28.87
2018-08-10T16:16:55.204Z,30.02
2018-08-10T16:19:26.700Z,29.55
2018-08-10T16:21:56.782Z,28.61
2018-08-10T16:24:25.684Z,27.64
2018-08-10T16:26:54.522Z,28.12
2018-08-10T16:29:23.314Z,29.17
2018-08-10T16:31:53.036Z,27.85
2018-08-10T16:34:24.548Z,28.04
2018-08-10T16:36:55.001Z,27.44
2018-08-10T16:39:25.738Z,27.37
2018-08-10T16:41:56.380Z,28.40
2018-08-10T16:44:28.021Z,27.60
2018-08-10T16:46:57.581Z,28.14
2018-08-10T16:49:26.653Z,29.33
2018-08-10T16:51:57.805Z,28.91
2018-08-10T16:54:27.237Z,30.14
2018-08-10T16:56:58.277Z,30.69
2018-08-10T16:59:27.124Z,30.26
2018-08-10T17:01:56.469Z,29.60
2018-08-10T17:04:25.351Z,30.07
2018-08-10T17:06:55.152Z,30.75
2018-08-10T17:09:24.913Z,30.66
2018-08-10T17:11:54.662Z,30.54
2018-08-10T17:14:23.517Z,30.31
2018-08-10T17:17:56.754Z,31.17
2018-08-10T17:20:26.268Z,31.27
2018-08-10T17:22:57.767Z,31.52
2018-08-10T17:25:30.405Z,31.44
2018-08-10T17:28:05.360Z,30.89
2018-08-10T17:30:34.993Z,32.03
2018-08-10T17:33:03.940Z,32.04
2018-08-10T17:35:32.796Z,31.34
2018-08-10T17:38:02.024Z,32.42
2018-08-10T17:40:32.940Z,32.78
2018-08-10T17:43:01.938Z,32.91
2018-08-10T17:45:32.377Z,33.17
2018-08-10T17:48:01.528Z,33.37
2018-08-10T17:50:31.879Z,33.31
2018-08-10T17:53:01.200Z,33.15
2018-08-10T17:55:33.406Z,33.36
2018-08-10T17:58:03.281Z,34.30
2018-08-10T18:00:33.103Z,35.19
2018-08-10T18:03:03.203Z,35.42
2018-08-10T18:05:34.588Z,36.38
2018-08-10T18:08:06.412Z,36.31
2018-08-10T18:10:37.720Z,37.23
2018-08-10T18:13:07.949Z,36.59
2018-08-10T18:15:41.107Z,37.26
2018-08-10T18:18:14.301Z,36.69
2018-08-10T18:20:45.727Z,37.15
2018-08-10T18:23:15.380Z,37.82
2018-08-10T18:25:46.578Z,37.94
2018-08-10T18:28:18.949Z,38.03
2018-08-10T18:30:52.461Z,37.27
2018-08-10T18:36:00.253Z,38.97
2018-08-10T18:38:32.585Z,38.45
2018-08-10T18:41:03.806Z,39.03
2018-08-10T18:43:34.854Z,38.85
2018-08-10T18:46:04.946Z,38.69
2018-08-10T18:48:34.693Z,39.83
2018-08-10T18:51:05.505Z,39.05
2018-08-10T18:53:36.252Z,39.29
2018-08-10T18:56:06.488Z,39.31
2018-08-10T18:58:36.112Z,40.18
2018-08-10T19:01:06.829Z,39.59
2018-08-10T19:03:38.191Z,40.20
2018-08-10T19:06:08.871Z,40.68
2018-08-10T19:08:41.276Z,40.61
2018-08-10T19:11:12.871Z,40.43
2018-08-10T19:13:51.049Z,41.79
2018-08-10T19:16:25.399Z,41.33
2018-08-10T19:18:56.638Z,41.38
2018-08-10T19:21:27.814Z,42.30
2018-08-10T19:23:59.341Z,41.33
2018-08-10T19:26:30.893Z,41.84
2018-08-10T19:29:03.364Z,42.02
2018-08-10T19:31:33.819Z,42.53
2018-08-10T19:34:04.227Z,43.31
2018-08-10T19:36:38.174Z,42.85
2018-08-10T19:39:12.427Z,42.25
2018-08-10T19:41:44.557Z,43.65
2018-08-10T19:44:18.467Z,43.07
2018-08-10T19:46:52.862Z,44.29
2018-08-10T19:49:22.879Z,44.16
2018-08-10T19:51:54.431Z,44.62
2018-08-10T19:54:25.324Z,44.74
2018-08-10T19:56:55.254Z,44.46
2018-08-10T19:59:26.443Z,45.21
2018-08-10T20:01:58.766Z,44.47
2018-08-10T20:04:33.244Z,45.56
2018-08-10T20:07:05.521Z,45.55
2018-08-10T20:09:39.836Z,45.36
2018-08-10T20:12:13.609Z,45.53
2018-08-10T20:14:45.053Z,45.27
2018-08-10T20:17:17.379Z,45.72
2018-08-10T20:19:46.293Z,46.14
2018-08-10T20:22:18.783Z,46.21
2018-08-10T20:24:52.285Z,47.07
2018-08-10T20:27:21.997Z,47.14
2018-08-10T20:29:51.532Z,48.47
2018-08-10T20:34:58.059Z,48.37
2018-08-10T20:37:29.315Z,48.88
2018-08-10T20:40:00.369Z,48.18
2018-08-10T20:42:30.590Z,48.92
2018-08-10T20:45:01.560Z,48.93
2018-08-10T20:47:31.745Z,49.21
2018-08-10T20:50:02.815Z,49.01
2018-08-10T20:52:32.165Z,49.95
2018-08-10T20:55:04.639Z,49.45
2018-08-10T20:57:36.111Z,49.69
2018-08-10T21:00:07.175Z,49.04
2018-08-10T21:02:37.240Z,49.48
2018-08-10T21:05:07.249Z,50.30
2018-08-10T21:07:39.269Z,49.68
2018-08-10T21:10:13.569Z,50.26
2018-08-10T21:12:44.424Z,49.92
2018-08-10T21:15:14.729Z,49.75
2018-08-10T21:17:46.941Z,50.44
2018-08-10T21:20:18.757Z,50.92
2018-08-10T21:22:48.528Z,51.62
2018-08-10T21:25:17.924Z,51.30
2018-08-10T21:27:46.995Z,51.02
2018-08-10T21:30:20.425Z,51.86
2018-08-10T21:32:50.281Z,51.77
2018-08-10T21:35:19.461Z,52.19
2018-08-10T21:37:49.171Z,52.16
2018-08-10T21:40:19.471Z,52.34
2018-08-10T21:42:49.417Z,51.58
2018-08-10T21:45:20.628Z,50.49
2018-08-10T21:47:52.603Z,51.16
2018-08-10T21:50:22.103Z,49.94
2018-08-10T21:52:51.350Z,50.43
2018-08-10T21:55:20.591Z,52.12
2018-08-10T21:57:50.735Z,51.16
2018-08-10T22:00:38.212Z,53.32
2018-08-10T22:03:09.123Z,53.66
2018-08-10T22:05:38.674Z,56.15
2018-08-10T22:08:08.563Z,54.89
2018-08-10T22:10:37.964Z,55.17
2018-08-10T22:13:06.827Z,57.66
2018-08-10T22:15:40.796Z,58.61
2018-08-10T22:18:17.011Z,59.89
2018-08-10T22:20:56.686Z,59.20
2018-08-10T22:23:26.316Z,59.06
2018-08-10T22:25:55.223Z,59.96
2018-08-10T22:28:24.654Z,60.04
2018-08-10T22:30:53.548Z,60.29
2018-08-10T22:33:22.423Z,59.15
2018-08-10T22:35:52.616Z,59.44
2018-08-10T22:38:21.447Z,60.65
2018-08-10T22:40:50.734Z,61.81
2018-08-10T22:43:21.133Z,61.81
2018-08-10T22:45:50.591Z,62.35
2018-08-10T22:48:20.489Z,63.63
2018-08-10T22:50:49.475Z,63.04
2018-08-10T22:53:18.887Z,62.20
2018-08-10T22:55:48.574Z,61.89
2018-08-10T22:58:17.919Z,63.60
2018-08-10T23:00:46.746Z,62.69
2018-08-10T23:03:15.702Z,63.93
2018-08-10T23:05:45.209Z,63.25
2018-08-10T23:08:16.215Z,62.92
2018-08-10T23:10:46.209Z,63.28
2018-08-10T23:13:15.084Z,63.50
2018-08-10T23:15:45.144Z,62.71
2018-08-10T23:18:14.644Z,63.79
2018-08-10T23:20:43.457Z,63.84
2018-08-10T23:23:12.785Z,64.12
2018-08-10T23:25:43.299Z,64.70
2018-08-10T23:28:13.201Z,63.39
2018-08-10T23:30:42.439Z,64.57
2018-08-10T23:33:12.344Z,65.20
2018-08-10T23:35:48.246Z,64.34
2018-08-10T23:38:17.096Z,64.52
2018-08-10T23:40:47.569Z,65.23
2018-08-10T23:43:17.844Z,64.40
2018-08-10T23:45:48.380Z,64.79
2018-08-10T23:48:17.751Z,64.52
2018-08-10T23:50:48.048Z,64.19
2018-08-10T23:53:17.793Z,63.91
2018-08-10T23:55:46.656Z,63.68
2018-08-10T23:58:16.659Z,65.14
